Time;durP1;ratioP1;P1;durP2;ratioP2;P2;SDS_P1;SDS_P2;PMS_P1;PMS_P2;Temp;Humidity;BMP_temperature;BMP_pressure;BME280_temperature;BME280_humidity;BME280_pressure;Samples;Min_cycle;Max_cycle;Signal;HPM_P1;HPM_P2
2023/01/05 00:01:49;;;;;;;5.13;1.10;;;10.10;99.90;;;10.12;100.00;100763.38;4972186;28;20257;-81
2023/01/05 00:04:17;;;;;;;13.38;2.75;;;10.10;99.90;;;10.15;100.00;100758.13;4973471;28;20751;-76
2023/01/05 00:06:44;;;;;;;9.32;2.08;;;10.10;99.90;;;10.16;100.00;100765.19;4969307;28;20288;-76
2023/01/05 00:09:15;;;;;;;3.10;0.68;;;10.10;99.90;;;10.23;100.00;100772.41;4973850;28;20295;-75
2023/01/05 00:23:07;;;;;;;13.88;3.13;;;10.30;99.90;;;10.14;100.00;100749.31;4965396;28;20261;-75
2023/01/05 00:25:39;;;;;;;14.90;3.20;;;10.20;99.90;;;10.02;100.00;100741.22;4971777;28;20324;-75
2023/01/05 00:28:07;;;;;;;10.85;2.40;;;10.00;99.90;;;9.94;100.00;100726.97;4970850;28;20236;-75
2023/01/05 00:30:40;;;;;;;11.95;2.47;;;10.00;99.90;;;9.92;100.00;100731.34;4971931;28;20293;-75
2023/01/05 00:33:09;;;;;;;6.78;1.50;;;9.90;99.90;;;9.90;100.00;100730.44;4964153;28;20252;-77
2023/01/05 00:35:37;;;;;;;9.30;2.22;;;9.90;99.90;;;9.88;100.00;100724.25;4971357;28;20233;-76
2023/01/05 00:38:06;;;;;;;14.98;3.33;;;9.90;99.90;;;9.89;100.00;100723.38;4969043;28;20257;-76
2023/01/05 00:40:34;;;;;;;18.63;3.97;;;9.90;99.90;;;9.90;100.00;100718.13;4969296;28;20243;-76
2023/01/05 00:43:02;;;;;;;20.48;4.43;;;9.90;99.90;;;9.95;100.00;100724.38;4970580;28;20260;-79
2023/01/05 00:45:29;;;;;;;8.40;1.77;;;9.90;99.90;;;9.99;100.00;100734.97;4970698;28;20248;-80
2023/01/05 00:47:56;;;;;;;14.68;3.35;;;10.00;99.90;;;10.00;100.00;100719.16;4971582;28;20694;-75
2023/01/05 00:50:23;;;;;;;15.05;3.35;;;10.00;99.90;;;10.02;100.00;100716.53;4970739;28;20261;-77
2023/01/05 00:52:50;;;;;;;4.93;1.13;;;10.00;99.90;;;10.06;100.00;100718.34;4966989;28;20280;-75
2023/01/05 00:55:18;;;;;;;11.07;2.33;;;10.00;99.90;;;10.08;100.00;100706.06;4976773;28;20229;-77
2023/01/05 00:57:45;;;;;;;5.25;1.15;;;10.10;99.90;;;10.13;100.00;100723.75;4979230;28;20240;-80
2023/01/05 01:00:17;;;;;;;6.82;1.42;;;10.10;99.90;;;10.15;100.00;100729.06;4968394;28;20698;-77
2023/01/05 01:02:45;;;;;;;7.80;1.70;;;10.10;99.90;;;10.17;100.00;100741.44;4971581;28;20236;-75
2023/01/05 01:05:13;;;;;;;12.27;2.55;;;10.20;99.90;;;10.21;100.00;100745.06;4972146;28;20296;-75
2023/01/05 01:07:40;;;;;;;7.90;1.73;;;10.20;99.90;;;10.26;100.00;100724.88;4976009;28;20232;-76
2023/01/05 01:10:09;;;;;;;12.88;2.65;;;10.20;99.90;;;10.31;100.00;100735.50;4977387;28;20236;-77
2023/01/05 01:12:36;;;;;;;13.60;2.97;;;10.30;99.90;;;10.52;100.00;100744.69;4970660;28;20225;-78
2023/01/05 01:15:05;;;;;;;13.32;2.95;;;10.50;99.90;;;10.50;100.00;100741.13;4977895;28;20288;-75
2023/01/05 01:17:33;;;;;;;14.38;3.15;;;10.50;99.90;;;10.41;100.00;100734.81;4956183;28;20233;-78
2023/01/05 01:20:00;;;;;;;8.38;1.85;;;10.40;99.90;;;10.34;100.00;100728.50;4973650;28;20229;-77
2023/01/05 01:22:27;;;;;;;5.45;1.33;;;10.30;99.90;;;10.35;100.00;100740.88;4964550;28;20260;-77
2023/01/05 01:24:54;;;;;;;13.07;3.00;;;10.30;99.90;;;10.49;100.00;100751.69;4973938;28;20263;-77
2023/01/05 01:27:21;;;;;;;16.33;3.47;;;10.40;99.90;;;10.87;100.00;100765.41;4969712;28;20643;-76
2023/01/05 01:29:48;;;;;;;12.73;2.58;;;10.70;99.90;;;10.80;100.00;100753.88;4973027;28;20253;-82
2023/01/05 01:32:15;;;;;;;11.05;2.30;;;10.80;99.90;;;10.63;100.00;100765.97;4974441;28;20244;-77
2023/01/05 01:34:42;;;;;;;10.73;2.22;;;10.60;99.90;;;10.64;100.00;100767.75;4972325;28;20228;-77
2023/01/05 01:37:08;;;;;;;20.70;4.20;;;10.60;99.90;;;11.16;100.00;100801.09;4969956;28;20277;-77
2023/01/05 01:39:35;;;;;;;25.00;5.10;;;11.00;99.90;;;11.66;100.00;100832.56;4965578;28;20260;-78
2023/01/05 01:42:03;;;;;;;23.30;4.85;;;11.50;99.90;;;10.86;100.00;100788.34;4976110;28;20304;-78
2023/01/05 01:44:52;;;;;;;8.98;1.88;;;11.00;99.90;;;10.55;100.00;100778.22;4968018;28;20232;-77
2023/01/05 01:47:28;;;;;;;7.95;1.70;;;10.60;99.90;;;11.03;100.00;100796.50;4976840;28;20232;-76
2023/01/05 01:50:00;;;;;;;4.25;1.05;;;10.80;99.90;;;11.57;100.00;100813.91;4957638;28;20224;-76
2023/01/05 01:52:29;;;;;;;12.25;2.80;;;11.50;99.90;;;11.55;100.00;100820.97;4962341;28;20288;-75
2023/01/05 01:54:57;;;;;;;12.48;2.80;;;11.50;99.90;;;11.93;100.00;100839.09;4966284;28;20237;-79
2023/01/05 01:57:27;;;;;;;13.20;2.97;;;11.80;99.90;;;11.96;100.00;100825.88;4973722;28;20229;-75
2023/01/05 01:59:57;;;;;;;12.35;2.67;;;11.90;99.90;;;11.93;100.00;100831.13;4967811;28;20293;-78
2023/01/05 02:02:27;;;;;;;5.90;1.40;;;11.90;99.90;;;11.23;100.00;100797.63;4971122;28;20279;-76
2023/01/05 02:05:01;;;;;;;16.35;3.63;;;11.40;99.90;;;10.92;100.00;100784.91;4974465;28;20228;-75
2023/01/05 02:07:33;;;;;;;9.07;1.98;;;11.00;99.90;;;10.74;100.00;100771.41;4971286;28;20248;-78
2023/01/05 02:10:03;;;;;;;16.17;3.47;;;10.80;99.90;;;10.71;100.00;100781.97;4967807;28;20225;-82
2023/01/05 02:12:52;;;;;;;13.40;2.97;;;10.70;99.90;;;10.60;100.00;100794.13;4969633;28;20337;-78
2023/01/05 02:15:48;;;;;;;8.85;1.88;;;10.60;99.90;;;10.94;100.00;100814.03;4970924;28;20262;-78
2023/01/05 02:18:45;;;;;;;13.38;2.70;;;10.80;99.90;;;11.53;100.00;100842.13;4965268;28;20241;-75
2023/01/05 02:21:55;;;;;;;15.35;3.10;;;11.40;99.90;;;10.92;100.00;100787.53;4962486;28;20236;-76
2023/01/05 02:24:55;;;;;;;17.35;3.72;;;11.00;99.90;;;10.73;100.00;100790.81;4969514;28;20237;-75
2023/01/05 02:28:04;;;;;;;14.15;3.00;;;10.70;99.90;;;11.52;100.00;100834.16;4967444;28;20295;-76
2023/01/05 02:30:58;;;;;;;15.88;3.58;;;11.40;99.90;;;11.55;100.00;100799.78;4959990;28;20332;-75
2023/01/05 02:33:53;;;;;;;16.23;3.53;;;11.50;99.90;;;11.72;100.00;100806.16;4969749;28;20341;-77
2023/01/05 02:36:59;;;;;;;7.90;1.75;;;11.70;99.90;;;11.75;100.00;100784.13;4967538;28;20228;-75
2023/01/05 02:39:50;;;;;;;34.40;6.88;;;11.70;99.90;;;11.90;100.00;100791.34;4933865;28;20253;-79
2023/01/05 02:42:23;;;;;;;20.73;4.07;;;11.80;99.90;;;12.02;100.00;100792.34;4965888;28;20298;-75
2023/01/05 02:44:50;;;;;;;15.00;3.08;;;11.90;99.90;;;11.94;100.00;100779.91;4968334;28;20232;-77
2023/01/05 02:47:26;;;;;;;105.80;19.63;;;12.00;99.90;;;11.99;100.00;100773.78;4961702;28;20237;-82
2023/01/05 02:50:11;;;;;;;11.13;2.58;;;11.90;99.90;;;11.85;100.00;100756.84;4965075;28;20232;-78
2023/01/05 02:52:53;;;;;;;22.70;4.63;;;11.80;99.90;;;11.99;100.00;100772.88;4964280;28;20737;-76
2023/01/05 02:55:31;;;;;;;14.68;3.05;;;11.90;99.90;;;11.91;100.00;100759.56;4970957;28;20220;-77
2023/01/05 02:58:26;;;;;;;18.35;3.83;;;11.80;99.90;;;11.97;100.00;100769.31;4978410;28;20232;-75
2023/01/05 03:01:01;;;;;;;29.45;5.82;;;11.90;99.90;;;12.04;100.00;100769.41;4964187;28;20299;-78
2023/01/05 03:03:35;;;;;;;30.85;6.32;;;12.00;99.90;;;12.06;100.00;100759.69;4966439;28;20232;-82
2023/01/05 03:06:23;;;;;;;26.67;5.43;;;12.00;99.90;;;11.96;100.00;100767.56;4970381;28;20220;-76
2023/01/05 03:09:03;;;;;;;18.00;3.75;;;11.90;99.90;;;11.82;100.00;100773.63;4969624;28;20263;-74
2023/01/05 03:14:37;;;;;;;29.40;6.00;;;11.60;99.90;;;11.58;100.00;100764.47;4964533;28;20221;-77
2023/01/05 03:17:10;;;;;;;13.02;2.95;;;11.50;99.90;;;11.55;100.00;100763.56;4966984;28;20295;-75
2023/01/05 03:19:38;;;;;;;18.45;3.92;;;11.50;99.90;;;11.38;100.00;100773.09;4969608;28;20273;-76
2023/01/05 03:37:02;;;;;;;8.45;1.85;;;11.40;99.90;;;11.51;100.00;100793.56;4971204;28;20221;-77
2023/01/05 03:39:31;;;;;;;27.58;5.70;;;11.40;99.90;;;11.42;100.00;100780.22;4967372;28;20754;-78
2023/01/05 03:41:59;;;;;;;19.95;4.38;;;11.40;99.90;;;11.53;100.00;100785.63;4967673;28;20251;-78
2023/01/05 03:44:26;;;;;;;14.80;3.25;;;11.50;99.90;;;11.53;100.00;100788.28;4961862;28;20288;-76
2023/01/05 03:46:53;;;;;;;12.77;2.85;;;11.50;99.90;;;11.41;100.00;100769.59;4972536;28;20295;-75
2023/01/05 03:49:21;;;;;;;18.23;3.75;;;11.40;99.90;;;11.37;100.00;100771.31;4971290;28;20224;-80
2023/01/05 03:51:48;;;;;;;11.35;2.33;;;11.30;99.90;;;11.41;100.00;100772.25;4951410;28;20253;-75
2023/01/05 03:54:15;;;;;;;6.25;1.35;;;11.40;99.90;;;11.42;100.00;100785.50;4971191;28;20236;-75
2023/01/05 03:56:42;;;;;;;7.22;1.58;;;11.40;99.90;;;11.47;100.00;100788.19;4964488;28;20249;-74
2023/01/05 03:59:09;;;;;;;13.48;2.97;;;11.40;99.90;;;11.85;100.00;100796.59;4970414;28;20718;-76
2023/01/05 04:01:36;;;;;;;13.85;2.95;;;11.80;99.90;;;11.61;100.00;100778.63;4966410;28;20229;-75
2023/01/05 04:04:03;;;;;;;16.45;3.47;;;11.60;99.90;;;11.55;100.00;100781.22;4964361;28;20228;-75
2023/01/05 04:06:30;;;;;;;23.27;4.80;;;11.50;99.90;;;11.49;100.00;100790.00;4965925;28;20260;-80
2023/01/05 04:08:57;;;;;;;15.30;3.40;;;11.50;99.90;;;11.51;100.00;100777.66;4970070;28;20225;-78
2023/01/05 04:11:25;;;;;;;15.38;3.30;;;11.50;99.90;;;11.55;100.00;100757.38;4966182;28;20228;-74
2023/01/05 04:13:52;;;;;;;11.73;2.50;;;11.50;99.90;;;11.45;100.00;100755.50;4970027;28;20291;-77
2023/01/05 04:16:19;;;;;;;15.10;3.17;;;11.40;99.90;;;11.46;99.46;100737.00;4960932;28;20246;-79
2023/01/05 04:18:46;;;;;;;11.20;2.20;;;11.40;99.90;;;11.41;97.68;100711.34;4976451;28;20621;-79
2023/01/05 04:21:13;;;;;;;11.40;3.28;;;11.40;99.90;;;11.37;96.15;100697.19;4967197;28;20253;-75
2023/01/05 04:23:40;;;;;;;12.23;2.58;;;11.30;99.90;;;11.23;96.48;100697.03;4975344;28;20241;-77
2023/01/05 04:26:07;;;;;;;12.82;2.85;;;11.30;99.90;;;11.26;95.11;100695.28;4968718;28;20275;-76
2023/01/05 04:28:34;;;;;;;16.60;3.67;;;11.20;99.90;;;11.24;94.63;100708.53;4975115;28;20349;-75
2023/01/05 04:31:02;;;;;;;17.02;3.70;;;11.20;99.90;;;11.12;94.43;100693.41;4969477;28;20276;-75
2023/01/05 04:33:29;;;;;;;13.48;2.97;;;11.10;99.90;;;11.15;93.68;100695.19;4971422;28;20769;-76
2023/01/05 04:35:56;;;;;;;13.45;3.00;;;11.10;99.90;;;11.13;93.30;100694.28;4971703;28;20291;-76
2023/01/05 04:38:23;;;;;;;10.43;2.30;;;11.10;99.90;;;11.03;93.00;100709.16;4964528;28;20244;-77
2023/01/05 04:40:51;;;;;;;6.55;1.42;;;11.00;99.90;;;10.88;93.23;100701.94;4960925;28;20290;-76
2023/01/05 04:43:18;;;;;;;8.00;1.67;;;10.90;99.90;;;11.10;90.10;100687.19;4969965;28;20237;-76
2023/01/05 04:45:47;;;;;;;9.40;2.03;;;11.00;99.90;;;10.95;89.58;100660.56;4963632;28;20307;-75
2023/01/05 04:48:15;;;;;;;11.48;2.35;;;10.90;99.90;;;10.97;89.05;100656.19;4977553;28;20276;-77
2023/01/05 04:50:42;;;;;;;20.80;4.13;;;10.90;99.90;;;11.04;88.38;100673.91;4958831;28;20277;-81
2023/01/05 04:53:10;;;;;;;21.83;4.43;;;10.90;99.90;;;10.97;88.00;100632.38;4968447;28;20241;-75
2023/01/05 04:55:37;;;;;;;12.57;2.92;;;10.90;99.90;;;10.97;87.44;100626.19;4964213;28;20229;-78
2023/01/05 04:58:04;;;;;;;11.77;2.67;;;10.90;99.90;;;10.92;87.31;100627.88;4967813;28;20738;-81
2023/01/05 05:00:38;;;;;;;19.98;4.22;;;10.90;99.90;;;10.91;87.20;100616.41;4967809;28;20237;-76
2023/01/05 05:03:05;;;;;;;15.63;3.35;;;10.90;99.90;;;10.94;86.39;100612.91;4965610;28;20237;-78
2023/01/05 05:05:33;;;;;;;20.90;4.43;;;10.90;99.90;;;10.75;87.57;100604.78;4967585;28;20221;-75
2023/01/05 05:08:00;;;;;;;13.73;2.92;;;10.80;99.90;;;10.87;86.70;100620.78;4971087;28;20613;-77
2023/01/05 05:10:27;;;;;;;16.65;3.42;;;10.80;99.90;;;11.04;85.67;100610.38;4968532;28;20256;-79
2023/01/05 05:12:55;;;;;;;11.90;2.83;;;11.00;99.90;;;10.90;85.78;100599.66;4968029;28;20283;-75
2023/01/05 05:15:22;;;;;;;12.07;2.60;;;10.90;99.90;;;11.04;85.38;100599.78;4964348;28;20315;-75
2023/01/05 05:17:50;;;;;;;17.30;3.45;;;11.00;99.90;;;11.02;85.58;100621.81;4957892;28;20229;-76
2023/01/05 05:20:17;;;;;;;21.95;4.25;;;10.90;99.90;;;10.96;86.07;100614.72;4967280;28;20231;-75
2023/01/05 05:22:45;;;;;;;11.70;2.47;;;10.90;99.90;;;10.89;86.37;100627.00;4964149;28;20229;-79
2023/01/05 05:25:12;;;;;;;15.77;3.28;;;10.90;99.90;;;10.82;87.29;100648.06;4972424;28;20232;-83
2023/01/05 05:27:39;;;;;;;14.27;2.85;;;10.80;99.90;;;10.89;87.40;100661.38;4966921;28;20237;-74
2023/01/05 05:30:07;;;;;;;18.38;3.88;;;10.80;99.90;;;10.97;86.91;100656.19;4966897;28;20240;-75
2023/01/05 05:32:34;;;;;;;13.75;3.10;;;10.90;99.90;;;10.88;87.28;100651.66;4981941;28;20268;-75
2023/01/05 05:35:09;;;;;;;15.50;3.20;;;10.80;99.90;;;10.85;87.44;100654.28;4963561;28;20241;-75
2023/01/05 05:37:36;;;;;;;13.88;3.17;;;10.80;99.90;;;10.89;87.70;100663.13;4965770;28;20308;-76
2023/01/05 05:40:04;;;;;;;11.93;2.67;;;10.90;99.90;;;10.80;87.62;100658.63;4952569;28;20285;-75
2023/01/05 05:42:31;;;;;;;13.30;2.97;;;10.80;99.90;;;10.82;87.92;100677.16;4974775;28;20229;-76
2023/01/05 05:44:58;;;;;;;15.10;3.35;;;10.80;99.90;;;10.73;88.70;100671.78;4970363;28;20233;-75
2023/01/05 05:47:26;;;;;;;13.73;2.95;;;10.70;99.90;;;10.93;87.79;100687.88;4966291;28;20239;-79
2023/01/05 05:49:53;;;;;;;20.05;4.07;;;10.90;99.90;;;10.96;87.70;100683.50;4982816;28;20229;-79
2023/01/05 05:52:20;;;;;;;19.77;3.92;;;10.90;99.90;;;10.95;86.86;100672.91;4965966;28;20259;-77
2023/01/05 05:54:47;;;;;;;10.05;2.13;;;10.90;99.90;;;10.87;87.11;100667.53;4973484;28;20279;-76
2023/01/05 05:57:16;;;;;;;10.55;2.20;;;10.80;99.90;;;10.70;88.24;100666.44;4968360;28;20240;-77
2023/01/05 05:59:43;;;;;;;22.60;4.47;;;10.70;99.90;;;10.64;88.62;100680.47;4972900;28;20244;-77
2023/01/05 06:02:10;;;;;;;14.15;2.85;;;10.60;99.90;;;10.58;89.58;100697.16;4966991;28;20240;-74
2023/01/05 06:04:37;;;;;;;23.27;4.93;;;10.50;99.90;;;10.45;90.85;100710.19;4964265;28;20241;-73
2023/01/05 06:07:05;;;;;;;14.65;3.22;;;10.50;99.90;;;10.37;91.92;100738.25;4976348;28;20228;-73
2023/01/05 06:09:32;;;;;;;26.77;5.35;;;10.40;99.90;;;10.43;92.37;100739.25;4974530;28;20287;-75
2023/01/05 06:11:59;;;;;;;15.50;3.35;;;10.40;99.90;;;10.34;92.90;100744.38;4969465;28;20240;-75
2023/01/05 06:14:26;;;;;;;11.32;2.38;;;10.30;99.90;;;10.57;91.97;100748.28;4968941;28;20274;-75
2023/01/05 06:16:53;;;;;;;11.48;2.58;;;10.50;99.90;;;10.58;91.54;100749.16;4970135;28;20241;-75
2023/01/05 06:19:20;;;;;;;14.80;2.97;;;10.50;99.90;;;10.52;91.79;100735.84;4962484;28;20686;-76
2023/01/05 06:21:47;;;;;;;13.00;2.65;;;10.50;99.90;;;10.54;91.31;100731.47;4963101;28;20248;-76
2023/01/05 06:24:15;;;;;;;19.27;3.83;;;10.50;99.90;;;10.68;90.71;100737.84;4971183;28;20267;-77
2023/01/05 06:26:42;;;;;;;16.05;3.28;;;10.60;99.90;;;10.65;90.02;100721.03;4967131;28;20288;-75
2023/01/05 06:29:09;;;;;;;14.43;2.85;;;10.60;99.90;;;10.49;90.98;100715.53;4968165;28;20268;-78
2023/01/05 06:31:36;;;;;;;14.23;3.13;;;10.50;99.90;;;10.64;90.57;100717.50;4967948;28;20229;-74
2023/01/05 06:34:03;;;;;;;14.30;3.15;;;10.60;99.90;;;10.69;90.28;100714.91;4981786;28;20240;-75
2023/01/05 06:36:30;;;;;;;12.57;2.88;;;10.60;99.90;;;10.54;90.96;100703.28;4969107;28;20693;-75
2023/01/05 06:38:57;;;;;;;16.83;3.63;;;10.60;99.90;;;10.51;91.54;100716.44;4969271;28;20260;-79
2023/01/05 06:41:24;;;;;;;15.93;3.42;;;10.50;99.90;;;10.56;91.36;100714.75;4962257;28;20312;-75
2023/01/05 06:43:51;;;;;;;19.67;4.00;;;10.50;99.90;;;10.66;90.42;100723.72;4958453;28;20252;-80
2023/01/05 06:46:18;;;;;;;13.35;2.70;;;10.60;99.90;;;10.71;90.40;100723.75;4971107;28;20224;-78
2023/01/05 06:48:45;;;;;;;11.48;2.40;;;10.60;99.90;;;10.60;90.60;100712.16;4977447;28;20308;-75
2023/01/05 06:51:12;;;;;;;10.52;2.20;;;10.60;99.90;;;10.51;91.01;100713.81;4960201;28;20241;-78
2023/01/05 06:53:39;;;;;;;18.67;3.70;;;10.50;99.90;;;10.42;91.66;100716.31;4967110;28;20276;-74
2023/01/05 06:56:06;;;;;;;15.32;3.33;;;10.40;99.90;;;10.34;92.82;100720.59;4978109;28;20803;-76
2023/01/05 06:58:33;;;;;;;11.13;2.55;;;10.30;99.90;;;10.30;93.25;100718.75;4989078;28;20236;-84
2023/01/05 07:01:01;;;;;;;13.93;3.13;;;10.30;99.90;;;10.27;93.58;100727.53;4961444;28;20654;-78
2023/01/05 07:03:28;;;;;;;14.13;3.08;;;10.30;99.90;;;10.23;94.14;100736.28;4950923;28;20237;-77
2023/01/05 07:05:55;;;;;;;22.73;4.70;;;10.20;99.90;;;10.44;93.06;100733.09;4964930;28;20258;-76
2023/01/05 07:08:22;;;;;;;17.13;3.60;;;10.40;99.90;;;10.48;92.64;100723.47;4960372;28;20266;-75
2023/01/05 07:10:49;;;;;;;7.18;1.48;;;10.40;99.90;;;10.37;93.10;100714.44;4958312;28;20249;-77
2023/01/05 07:13:16;;;;;;;10.95;2.28;;;10.40;99.90;;;10.41;92.78;100729.53;4951386;28;20234;-78
2023/01/05 07:15:43;;;;;;;11.68;2.35;;;10.40;99.90;;;10.38;92.86;100713.59;4951762;28;20233;-77
2023/01/05 07:18:11;;;;;;;6.90;1.48;;;10.40;99.90;;;10.35;92.91;100722.38;4970278;28;20241;-78
2023/01/05 07:20:38;;;;;;;16.80;3.70;;;10.30;99.90;;;10.46;92.59;100735.75;4965496;28;20260;-77
2023/01/05 07:23:05;;;;;;;16.45;3.55;;;10.40;99.90;;;10.47;92.07;100727.84;4969370;28;20657;-75
2023/01/05 07:25:32;;;;;;;20.83;4.40;;;10.40;99.90;;;10.43;92.05;100715.47;4977771;28;20233;-75
2023/01/05 07:27:59;;;;;;;14.95;3.22;;;10.40;99.90;;;10.49;91.92;100717.31;4973880;28;20244;-76
2023/01/05 07:30:26;;;;;;;15.43;3.38;;;10.40;99.90;;;10.45;92.20;100713.72;4969207;28;20276;-75
2023/01/05 07:32:58;;;;;;;13.98;2.95;;;10.50;99.90;;;10.54;91.37;100715.59;4968920;28;20240;-77
2023/01/05 07:35:27;;;;;;;15.70;3.50;;;10.50;99.90;;;10.48;91.55;100721.69;4982797;28;20232;-76
2023/01/05 07:37:57;;;;;;;21.13;4.35;;;10.50;99.90;;;10.55;91.58;100725.31;4985001;28;20283;-75
2023/01/05 07:40:24;;;;;;;12.07;2.78;;;10.50;99.90;;;10.56;91.65;100727.09;4983598;28;20337;-77
2023/01/05 07:42:53;;;;;;;11.30;2.42;;;10.50;99.90;;;10.67;90.47;100725.47;4978214;28;20236;-76
2023/01/05 07:45:20;;;;;;;10.38;2.10;;;10.60;99.90;;;10.67;90.47;100719.31;4968265;28;20234;-75
2023/01/05 07:47:47;;;;;;;9.70;1.92;;;10.60;99.90;;;10.66;90.31;100717.53;4963264;28;20709;-74
2023/01/05 07:50:14;;;;;;;16.67;3.35;;;10.60;99.90;;;10.63;90.73;100726.31;4968137;28;20260;-80
2023/01/05 07:52:41;;;;;;;7.75;1.65;;;10.60;99.90;;;10.58;91.31;100731.53;4971809;28;20701;-75
2023/01/05 07:55:09;;;;;;;11.82;2.40;;;10.60;99.90;;;10.54;91.51;100721.78;4976952;28;20529;-75
2023/01/05 07:57:36;;;;;;;11.45;2.58;;;10.50;99.90;;;10.49;92.05;100735.81;4972434;28;20253;-75
2023/01/05 08:00:05;;;;;;;10.05;2.35;;;10.50;99.90;;;10.40;92.70;100744.50;4968292;28;20249;-76
2023/01/05 08:02:32;;;;;;;16.25;3.42;;;10.40;99.90;;;10.48;92.71;100747.25;4972348;28;20240;-75
2023/01/05 08:05:02;;;;;;;13.95;3.05;;;10.40;99.90;;;10.58;92.27;100763.28;4970503;28;20221;-77
2023/01/05 08:07:29;;;;;;;11.00;2.53;;;10.50;99.90;;;10.72;91.23;100763.47;4967524;28;20232;-77
2023/01/05 08:15:27;;;;;;;16.42;3.50;;;10.60;99.90;;;10.61;91.67;100754.50;4971700;28;20288;-75
2023/01/05 08:17:54;;;;;;;13.95;3.08;;;10.60;99.90;;;10.63;91.75;100752.75;4972093;28;20698;-76
2023/01/05 08:20:21;;;;;;;11.68;2.50;;;10.60;99.90;;;10.57;91.97;100755.31;4968978;28;20241;-75
2023/01/05 08:22:52;;;;;;;10.45;2.15;;;10.60;99.90;;;10.65;91.83;100764.25;4968553;28;20237;-77
2023/01/05 08:25:20;;;;;;;7.13;1.50;;;10.60;99.90;;;10.56;92.23;100767.66;4972146;28;20264;-79
2023/01/05 08:27:47;;;;;;;3.15;0.70;;;10.60;99.90;;;10.53;92.47;100767.59;4975850;28;20233;-75
2023/01/05 08:30:14;;;;;;;4.05;0.90;;;10.60;99.90;;;10.60;92.57;100775.63;4956728;28;20233;-75
2023/01/05 08:32:42;;;;;;;6.25;1.40;;;10.60;99.90;;;10.65;92.30;100782.75;4979544;28;20316;-77
2023/01/05 08:35:09;;;;;;;7.38;1.58;;;10.60;99.90;;;10.69;92.22;100786.34;4965577;28;20261;-77
2023/01/05 08:37:36;;;;;;;12.73;2.88;;;10.60;99.90;;;10.69;91.88;100767.81;4975096;28;20287;-74
2023/01/05 08:40:04;;;;;;;13.38;2.92;;;10.70;99.90;;;10.76;91.46;100775.88;4979807;28;20233;-75
2023/01/05 08:42:31;;;;;;;14.65;3.17;;;10.70;99.90;;;10.84;91.68;100783.91;4970464;28;20228;-77
2023/01/05 08:44:58;;;;;;;17.85;3.88;;;10.80;99.90;;;10.82;91.49;100778.59;4985608;28;20259;-80
2023/01/05 08:47:25;;;;;;;13.35;2.90;;;10.80;99.90;;;10.94;90.95;100784.91;4967871;28;20237;-77
2023/01/05 08:49:54;;;;;;;11.88;2.65;;;10.80;99.90;;;10.97;90.87;100779.66;4975116;28;20233;-77
2023/01/05 08:52:22;;;;;;;13.63;2.85;;;10.90;99.90;;;10.91;90.89;100775.19;4971180;28;20265;-76
2023/01/05 08:54:49;;;;;;;11.05;2.28;;;10.90;99.90;;;10.97;90.90;100803.47;4968193;28;20253;-83
2023/01/05 08:57:16;;;;;;;12.70;2.60;;;10.90;99.90;;;11.08;90.46;100788.63;4975161;28;20233;-77
2023/01/05 08:59:43;;;;;;;23.48;4.65;;;11.00;99.90;;;11.06;90.22;100777.13;4967938;28;20237;-77
2023/01/05 09:02:11;;;;;;;6.43;1.40;;;11.00;99.90;;;11.05;90.38;100783.28;4979650;28;20680;-77
2023/01/05 09:04:38;;;;;;;8.63;1.80;;;11.00;99.90;;;11.11;90.26;100786.91;4969578;28;20229;-77
2023/01/05 09:07:06;;;;;;;13.07;2.85;;;11.00;99.90;;;11.08;90.18;100799.22;4975580;28;20232;-76
2023/01/05 09:09:33;;;;;;;33.15;6.55;;;11.00;99.90;;;11.03;91.01;100792.97;4965193;28;20232;-79
2023/01/05 09:12:00;;;;;;;9.15;1.95;;;11.00;99.90;;;11.04;91.22;100800.03;4978359;28;20287;-77
2023/01/05 09:14:27;;;;;;;13.68;2.90;;;11.00;99.90;;;11.09;90.88;100801.00;4969684;28;20226;-76
2023/01/05 09:16:54;;;;;;;13.63;2.92;;;11.10;99.90;;;11.08;91.26;100801.84;4975868;28;20229;-77
2023/01/05 09:19:33;;;;;;;20.67;4.32;;;11.10;99.90;;;11.15;90.90;100795.78;4955022;28;20225;-77
2023/01/05 09:22:01;;;;;;;9.90;2.25;;;11.10;99.90;;;11.23;90.68;100810.00;4973838;28;20228;-77
2023/01/05 09:24:28;;;;;;;9.32;2.13;;;11.10;99.90;;;11.33;90.23;100784.50;4971032;28;20293;-77
2023/01/05 09:26:56;;;;;;;8.55;2.03;;;11.30;99.90;;;11.36;89.85;100784.53;4977472;28;20236;-80
2023/01/05 09:29:23;;;;;;;16.95;3.47;;;11.30;99.90;;;11.46;89.73;100792.59;4965288;28;20225;-76
2023/01/05 09:31:50;;;;;;;7.50;1.65;;;11.40;99.90;;;11.58;89.54;100799.81;4968720;28;20283;-77
2023/01/05 09:34:18;;;;;;;11.63;2.40;;;11.50;99.90;;;11.59;88.95;100783.03;4961668;28;20237;-77
2023/01/05 09:36:45;;;;;;;15.27;3.10;;;11.50;99.90;;;11.63;87.66;100768.06;4951378;28;20244;-77
2023/01/05 09:39:12;;;;;;;15.60;3.22;;;11.50;99.90;;;11.67;87.62;100767.22;4963617;28;20323;-77
2023/01/05 09:41:44;;;;;;;9.60;1.95;;;11.60;99.90;;;11.65;87.48;100756.59;4963977;28;20256;-78
2023/01/05 09:44:29;;;;;;;11.50;2.38;;;11.60;99.90;;;11.65;87.32;100758.38;4962072;28;20322;-79
2023/01/05 09:47:26;;;;;;;11.05;2.28;;;11.60;99.90;;;11.57;87.31;100762.69;4978476;28;20244;-77
2023/01/05 09:49:55;;;;;;;13.50;2.80;;;11.60;99.90;;;11.57;87.51;100745.03;4962650;28;20305;-78
2023/01/05 09:52:24;;;;;;;9.55;2.03;;;11.50;99.90;;;11.54;87.63;100755.63;4980205;28;20235;-76
2023/01/05 09:54:51;;;;;;;8.98;1.98;;;11.50;99.90;;;11.52;88.04;100771.50;4968921;28;20249;-76
2023/01/05 09:57:23;;;;;;;14.23;2.80;;;11.50;99.90;;;11.62;88.12;100772.47;4961153;28;20248;-79
2023/01/05 09:59:54;;;;;;;7.60;1.67;;;11.50;99.90;;;11.72;87.81;100771.72;4960367;28;20240;-78
2023/01/05 10:02:46;;;;;;;11.68;2.42;;;11.60;99.90;;;11.79;87.32;100757.69;4955262;28;20282;-78
2023/01/05 10:05:14;;;;;;;4.03;0.90;;;11.70;99.90;;;11.81;86.99;100758.59;4983436;28;20277;-78
2023/01/05 10:07:57;;;;;;;12.63;2.60;;;11.80;99.90;;;11.80;86.60;100750.63;4976086;28;20311;-79
2023/01/05 10:10:45;;;;;;;15.13;3.25;;;11.80;99.90;;;11.70;87.98;100752.28;4969973;28;20244;-77
2023/01/05 10:13:25;;;;;;;12.32;2.55;;;11.70;99.90;;;11.57;88.43;100760.06;4964976;28;20233;-77
2023/01/05 10:15:54;;;;;;;9.15;1.98;;;11.50;99.90;;;11.62;87.40;100745.97;4971416;28;20224;-77
2023/01/05 10:18:29;;;;;;;10.35;2.20;;;11.60;99.90;;;11.62;86.69;100716.84;4970032;28;20572;-78
2023/01/05 10:21:14;;;;;;;14.00;3.20;;;11.60;99.90;;;11.64;86.38;100715.09;4970656;28;20236;-82
2023/01/05 10:24:01;;;;;;;9.68;2.08;;;11.60;99.90;;;11.65;86.02;100708.03;4966842;28;20295;-77
2023/01/05 10:26:47;;;;;;;17.20;3.35;;;11.60;99.90;;;11.67;86.35;100714.22;4958136;28;20307;-77
2023/01/05 10:30:13;;;;;;;19.98;3.97;;;11.60;99.90;;;11.71;86.93;100726.66;4966042;28;20348;-77
2023/01/05 10:32:59;;;;;;;21.38;4.22;;;11.60;99.90;;;11.72;86.91;100715.19;4962017;28;20241;-76
2023/01/05 10:36:13;;;;;;;10.68;2.20;;;11.70;99.90;;;11.76;86.04;100706.41;4963292;28;20233;-78
2023/01/05 10:39:16;;;;;;;10.93;2.45;;;11.70;99.90;;;11.67;86.40;100693.94;4981932;28;20229;-79
2023/01/05 10:42:04;;;;;;;5.20;1.23;;;11.70;99.90;;;11.61;86.30;100699.16;4960459;28;20228;-76
2023/01/05 10:44:51;;;;;;;11.27;2.63;;;11.60;99.90;;;11.63;86.12;100688.59;4981466;28;20241;-78
2023/01/05 10:47:21;;;;;;;10.65;2.15;;;11.60;99.90;;;11.61;86.83;100698.28;4965169;28;20219;-76
2023/01/05 10:49:49;;;;;;;11.85;2.42;;;11.60;99.90;;;11.67;86.38;100699.22;4956752;28;20241;-76
2023/01/05 10:52:20;;;;;;;13.13;2.67;;;11.60;99.90;;;11.68;86.57;100698.34;4964385;28;20252;-80
2023/01/05 10:54:51;;;;;;;7.53;1.65;;;11.60;99.90;;;11.67;86.79;100708.94;4960449;28;20749;-76
2023/01/05 10:57:27;;;;;;;10.13;2.47;;;11.70;99.90;;;11.62;87.04;100700.94;4963905;28;20241;-78